Flight Track Log - Related Links

Times and Time Zones

All times are in EDT time to prevent confusion due to time zone crossing. See the GLA47E flight status page for this flight to view local times or setup timezone preferences in your user account.

Time Position Orientation Groundspeed Altitude Reporting Facility
EDT Latitude Longitude Course Direction KTS MPH feet Rate Location/Type
Wed 02:03:18 PM 40.7200 -99.1092 290° West 173 199 6,700  Level Minneapolis Center
Wed 02:04:20 PM 40.7375 -99.1733 290° West 177 204 8,200 2,081 Climbing Minneapolis Center
Wed 02:05:22 PM 40.7528 -99.2408 287° West 185 213 11,000 2,475 Climbing Minneapolis Center
Wed 02:05:40 PM 40.7542 -99.2514 280° West 182 209 11,500 2,593 Climbing Denver Center
Wed 02:06:43 PM 40.7692 -99.3186 286° West 163 188 14,500 2,208 Climbing Denver Center
Wed 02:07:45 PM 40.7792 -99.3800 282° West 168 193 16,100 1,500 Climbing Denver Center
Wed 02:08:47 PM 40.7808 -99.4533 272° West 192 221 17,600 968 Climbing Denver Center
Wed 02:09:49 PM 40.7906 -99.5308 279° West 208 239 18,100 629 Climbing Denver Center
Wed 02:10:51 PM 40.8042 -99.6114 283° West 221 254 18,900 677 Climbing Denver Center
Wed 02:11:53 PM 40.8036 -99.6956 270° West 227 261 19,500 532 Climbing Denver Center
Wed 02:12:55 PM 40.7978 -99.7956 266° West 229 264 20,000 242 Climbing Denver Center
Wed 02:13:57 PM 40.7953 -99.8822 268° West 232 267 20,000  Level Denver Center
Wed 02:14:59 PM 40.7947 -99.9675 270° West 239 275 20,000  Level Denver Center
Wed 02:16:01 PM 40.7958 -100.0639 271° West 237 273 20,000  Level Denver Center
Wed 02:17:03 PM 40.7958 -100.1472 270° West 237 273 20,000  Level Denver Center
Wed 02:18:05 PM 40.7944 -100.2414 269° West 232 267 20,000 48 Level Denver Center
Wed 02:19:07 PM 40.7956 -100.3242 271° West 234 269 20,100  Climbing Denver Center
Wed 02:20:20 PM 40.7958 -100.4194 270° West 234 269 20,000 -44 Descending Denver Center
Wed 02:21:23 PM 40.7950 -100.5144 269° West 233 268 20,000  Level Denver Center
Wed 02:22:25 PM 40.7950 -100.6103 270° West 233 268 20,000  Level Denver Center
Wed 02:23:27 PM 40.7942 -100.6936 269° West 234 269 20,000  Level Denver Center
Wed 02:24:29 PM 40.7958 -100.7792 272° West 235 270 20,000  Level Denver Center
Wed 02:25:31 PM 40.7978 -100.8750 272° West 231 266 20,000  Level Denver Center
Wed 02:26:33 PM 40.7983 -100.9575 271° West 234 269 20,000 48 Level Denver Center
Wed 02:27:35 PM 40.7994 -101.0542 271° West 236 272 20,100  Climbing Denver Center
Wed 02:28:37 PM 40.7975 -101.1372 268° West 237 273 20,000 -48 Descending Denver Center
Wed 02:29:39 PM 40.7950 -101.2328 268° West 235 270 20,000 49 Level Denver Center
Wed 02:30:40 PM 40.7944 -101.3161 270° West 236 272 20,100 49 Climbing Denver Center
Wed 02:31:42 PM 40.7958 -101.3989 271° West 237 273 20,100 -48 Level Denver Center
Wed 02:32:44 PM 40.7964 -101.4958 270° West 237 273 20,000  Descending Denver Center
Wed 02:33:46 PM 40.7989 -101.5783 272° West 236 272 20,100 48 Climbing Denver Center
Wed 02:34:48 PM 40.8019 -101.6747 272° West 235 270 20,100 -48 Level Denver Center
Wed 02:35:50 PM 40.8056 -101.7581 273° West 237 273 20,000 -48 Descending Denver Center
Wed 02:36:52 PM 40.8072 -101.8544 271° West 237 273 20,000  Level Denver Center
Wed 02:37:54 PM 40.8106 -101.9372 273° West 236 272 20,000  Level Denver Center
Wed 02:38:56 PM 40.8131 -102.0356 272° West 240 276 20,000 -48 Level Denver Center
Wed 02:39:58 PM 40.8086 -102.1175 266° West 235 270 19,900  Descending Denver Center
Wed 02:41:00 PM 40.8094 -102.2117 271° West 229 264 20,000 97 Climbing Denver Center
Wed 02:42:02 PM 40.8061 -102.2967 267° West 240 276 20,100  Climbing Denver Center
Wed 02:43:03 PM 40.8006 -102.3781 265° West 235 270 20,000 -49 Descending Denver Center
Wed 02:44:05 PM 40.8008 -102.4742 270° West 235 270 20,000 48 Level Denver Center
Wed 02:45:07 PM 40.7881 -102.5553 258° West 242 278 20,100  Climbing Denver Center
Wed 02:46:09 PM 40.7636 -102.6481 251° West 240 276 20,000 -48 Descending Denver Center
Wed 02:47:11 PM 40.7417 -102.7286 250° West 243 280 20,000  Level Denver Center
Wed 02:48:13 PM 40.7147 -102.8222 249° West 245 282 20,000  Level Denver Center
Wed 02:49:15 PM 40.6944 -102.9019 251° West 241 277 20,000  Level Denver Center
Wed 02:50:17 PM 40.6742 -102.9861 252° West 241 277 20,000 48 Level Denver Center
Wed 02:51:19 PM 40.6536 -103.0700 252° West 239 275 20,100 -242 Climbing Denver Center
Wed 02:52:21 PM 40.6303 -103.1672 252° West 237 273 19,500 -871 Descending Denver Center
Wed 02:53:23 PM 40.6044 -103.2503 248° West 241 277 18,300 -968 Descending Denver Center
Wed 02:54:25 PM 40.5817 -103.3339 250° West 240 276 17,500 -1,220 Descending Denver Center
Wed 02:55:26 PM 40.5644 -103.4122 254° West 224 258 15,800 -1,415 Descending Denver Center
Wed 02:56:28 PM 40.5419 -103.4881 249° West 221 254 14,600 -1,210 Descending Denver Center
Wed 02:57:30 PM 40.5164 -103.5567 244° Southwest 209 241 13,300 -774 Descending Denver Center
Wed 02:58:32 PM 40.4906 -103.6236 243° Southwest 205 236 13,000 -145 Descending Denver Center
Wed 02:59:34 PM 40.4575 -103.6914 237° Southwest 214 246 13,000 48 Level Denver Center
Wed 03:00:36 PM 40.4167 -103.7744 237° Southwest 240 276 13,100  Climbing Denver Center
Wed 03:01:38 PM 40.3864 -103.8525 243° Southwest 223 257 13,000 -49 Descending Denver Center
Wed 03:02:39 PM 40.3561 -103.9250 241° Southwest 226 260 13,000  Level Denver Center
Wed 03:03:41 PM 40.3175 -103.9903 232° Southwest 228 262 13,000 48 Level Denver Center
Wed 03:04:43 PM 40.2706 -104.0567 227° Southwest 231 266 13,100 48 Climbing Denver Center
Wed 03:05:45 PM 40.2222 -104.1108 221° Southwest 231 266 13,100 -48 Level Denver Center
Wed 03:06:47 PM 40.1486 -104.1344 194° South 250 288 13,000 -48 Descending Denver Center
Wed 03:07:49 PM 40.0872 -104.1569 196° South 229 264 13,000  Level Denver Center
Wed 03:08:51 PM 40.0311 -104.1842 200° South 215 247 13,000 -726 Level Denver Center
Wed 03:09:53 PM 39.9819 -104.2386 220° Southwest 215 247 11,500 -1,171 Descending Denver Center
Wed 03:10:54 PM 39.9378 -104.2881 221° Southwest 212 244 10,600 -927 Descending Denver Center
Wed 03:11:56 PM 39.9017 -104.3489 232° Southwest 199 229 9,600 -980 Descending Denver Center
Wed 03:12:32 PM 39.8833 -104.3833 235° Southwest 206 237 9,000 -1,125 Descending Denver TRACON
Wed 03:13:32 PM 39.8833 -104.4500 270° West 208 239 7,800 -1,067 Descending Denver TRACON
Wed 03:15:32 PM 39.8833 -104.5833 270° West 157 181 5,800 -1,000 Descending Denver TRACON
Wed 03:18:00 PM 39.8500 -104.6667 229° Southwest  Level FlightAware Approximate
Wed 03:25:00 PM 39.8617 -104.6732 229° Southwest  Level Estimated
Wed 03:26:00 PM 39.8617 -104.6732 229° Southwest  Level Estimated

Login

Don't have an account? Register now (free) for customized features, flight alerts, and more!